Butler, Wisconsin
Current Conditions -  °F | °C
As of 4:45 PM on Wednesday 22 Oct 2014 (Local Time) from KMWC Reporting Station
Clear Clear  
Wind Chill: 45°   Ceiling: Unl
Heat Index: 48°   Visibility: 10mi
Dew Point: 37°   Wind: 8mph
Humidity: 66%   Direction: 120°ESE
Pressure: 30.29"   Gusts: NA
Location:  43.11°N, 88.07°W
Report Text: KMWC 222145Z AUTO 12007KT 10SM SKC 09/03 A3029
Loading
Personal Weather Stations






























Interactive Weather Map
Tropical Storm Tracking
New forecast layout! Learn more

10-Day Weather Forecast

Advertisements
Track Severe Weather on mobile